KTYS METAR and TAF | Updated Today

KTYS METAR

McGhee Tyson Airport

Observation time: 6 min. ago

KTYS 292253Z 23004KT 10SM SCT250 05/M08 A3012 RMK AO2 SLP203 T00501078

Need help? Read our tutorial on how to read METARs or read the parsed version below.

McGhee Tyson Airport (KTYS) METAR

  • Weather conditions on Mon, 29 Nov 2021 22:53:00 +0000 (6 min. ago):
  • Present conditions: Dry
  • Clouds: Scattered at 7620 meters
  • Visibility: 16093 meters
  • Wind: 230 degrees at 4 knots
  • Temperature: 5 celsius
  • Dew point: -8 celsius
  • Pressure: 30.12 inHg
  • Remarks: AO2 SLP203 T00501078


Useful to know...

KTYS TAF

McGhee Tyson Airport

KTYS 291734Z 2918/3018 04007KT P6SM SKC FM292100 VRB04KT P6SM SKC
Observation time: 5:25 hr. ago
Need help? Read our tutorial on how to read TAFs or read the parsed version below.

Parsed version of TAF for McGhee Tyson Airport (KTYS)

  • From 29 November at 18:00 UTC, to day 30 of the month at 18:00 UTC
  • Clouds: No significant changes expected
  • Wind: 40 degrees at 7
  • From day 29 of the month at 21:00 UTC
  • Clouds: No significant changes expected
  • Wind: Variable at 4

Airports near KTYS

KGKT Weather
Region: Sevierville

Gatlinburg-Pigeon Forge Airport

Not found in our database
KMMI Weather
Region: Athens

McMinn County Airport

Not found in our database
KRKW Weather
Region: Rockwood

Rockwood Municipal Airport

Not found in our database